sensor_id;sensor_type;location;lat;lon;timestamp;temperature;humidity
30764;DHT22;17497;51.476;7.770;2023-06-19T00:01:40;23.50;94.00
30764;DHT22;17497;51.476;7.770;2023-06-19T00:04:07;23.50;94.80
30764;DHT22;17497;51.476;7.770;2023-06-19T00:06:34;23.50;95.30
30764;DHT22;17497;51.476;7.770;2023-06-19T00:09:00;23.50;95.60
30764;DHT22;17497;51.476;7.770;2023-06-19T00:11:27;23.50;96.30
30764;DHT22;17497;51.476;7.770;2023-06-19T00:13:54;23.40;97.00
30764;DHT22;17497;51.476;7.770;2023-06-19T00:16:21;23.30;97.90
30764;DHT22;17497;51.476;7.770;2023-06-19T00:18:48;23.20;98.70
30764;DHT22;17497;51.476;7.770;2023-06-19T00:21:15;23.10;99.30
30764;DHT22;17497;51.476;7.770;2023-06-19T00:23:41;23.10;99.90
30764;DHT22;17497;51.476;7.770;2023-06-19T00:26:08;23.00;99.90
30764;DHT22;17497;51.476;7.770;2023-06-19T00:28:35;23.00;99.90
30764;DHT22;17497;51.476;7.770;2023-06-19T00:31:07;22.90;99.90
30764;DHT22;17497;51.476;7.770;2023-06-19T00:33:35;22.90;99.90
30764;DHT22;17497;51.476;7.770;2023-06-19T00:36:01;22.80;99.90
30764;DHT22;17497;51.476;7.770;2023-06-19T00:38:28;22.80;99.90
30764;DHT22;17497;51.476;7.770;2023-06-19T00:40:55;22.70;99.90
30764;DHT22;17497;51.476;7.770;2023-06-19T00:43:22;22.60;99.90
30764;DHT22;17497;51.476;7.770;2023-06-19T00:45:49;22.50;99.90
30764;DHT22;17497;51.476;7.770;2023-06-19T00:48:17;22.50;99.90
30764;DHT22;17497;51.476;7.770;2023-06-19T00:50:43;22.40;99.90
30764;DHT22;17497;51.476;7.770;2023-06-19T00:53:10;22.40;99.90
30764;DHT22;17497;51.476;7.770;2023-06-19T00:55:38;22.40;99.90
30764;DHT22;17497;51.476;7.770;2023-06-19T00:58:05;22.30;99.90
30764;DHT22;17497;51.476;7.770;2023-06-19T01:00:32;22.30;99.90
30764;DHT22;17497;51.476;7.770;2023-06-19T01:02:59;22.20;99.90
30764;DHT22;17497;51.476;7.770;2023-06-19T01:05:26;22.30;99.90
30764;DHT22;17497;51.476;7.770;2023-06-19T01:08:04;22.30;99.90
30764;DHT22;17497;51.476;7.770;2023-06-19T01:10:41;22.30;99.90
30764;DHT22;17497;51.476;7.770;2023-06-19T01:15:54;22.40;99.90
30764;DHT22;17497;51.476;7.770;2023-06-19T01:18:21;22.40;99.90
30764;DHT22;17497;51.476;7.770;2023-06-19T01:20:49;22.40;99.90
30764;DHT22;17497;51.476;7.770;2023-06-19T01:23:16;22.40;99.90
30764;DHT22;17497;51.476;7.770;2023-06-19T01:25:43;22.40;99.90
30764;DHT22;17497;51.476;7.770;2023-06-19T01:28:10;22.50;99.90
30764;DHT22;17497;51.476;7.770;2023-06-19T01:30:40;22.50;99.90
30764;DHT22;17497;51.476;7.770;2023-06-19T01:35:47;22.50;99.90
30764;DHT22;17497;51.476;7.770;2023-06-19T01:38:16;22.50;99.90
30764;DHT22;17497;51.476;7.770;2023-06-19T01:40:44;22.40;99.90
30764;DHT22;17497;51.476;7.770;2023-06-19T01:43:11;22.30;99.90
30764;DHT22;17497;51.476;7.770;2023-06-19T01:45:38;22.30;99.90
30764;DHT22;17497;51.476;7.770;2023-06-19T01:48:05;22.30;99.90
30764;DHT22;17497;51.476;7.770;2023-06-19T01:50:32;22.20;99.90
30764;DHT22;17497;51.476;7.770;2023-06-19T01:52:59;22.20;99.90
30764;DHT22;17497;51.476;7.770;2023-06-19T01:55:26;22.20;99.90
30764;DHT22;17497;51.476;7.770;2023-06-19T01:57:53;22.10;99.90
30764;DHT22;17497;51.476;7.770;2023-06-19T02:00:20;22.00;99.90
30764;DHT22;17497;51.476;7.770;2023-06-19T02:02:47;22.00;99.90
30764;DHT22;17497;51.476;7.770;2023-06-19T02:05:14;22.00;99.90
30764;DHT22;17497;51.476;7.770;2023-06-19T02:07:41;21.90;99.90
30764;DHT22;17497;51.476;7.770;2023-06-19T02:10:08;21.90;99.90
30764;DHT22;17497;51.476;7.770;2023-06-19T02:12:35;21.90;99.90
30764;DHT22;17497;51.476;7.770;2023-06-19T02:15:02;21.90;99.90
30764;DHT22;17497;51.476;7.770;2023-06-19T02:17:30;21.90;99.90
30764;DHT22;17497;51.476;7.770;2023-06-19T02:19:57;21.90;99.90
30764;DHT22;17497;51.476;7.770;2023-06-19T02:22:23;21.80;99.90
30764;DHT22;17497;51.476;7.770;2023-06-19T02:24:50;21.80;99.90
30764;DHT22;17497;51.476;7.770;2023-06-19T02:27:17;21.80;99.90
30764;DHT22;17497;51.476;7.770;2023-06-19T02:29:44;21.70;99.90
30764;DHT22;17497;51.476;7.770;2023-06-19T02:32:10;21.70;99.90
30764;DHT22;17497;51.476;7.770;2023-06-19T02:34:37;21.70;99.90
30764;DHT22;17497;51.476;7.770;2023-06-19T02:37:05;21.60;99.90
30764;DHT22;17497;51.476;7.770;2023-06-19T02:39:32;21.60;99.90
30764;DHT22;17497;51.476;7.770;2023-06-19T02:41:59;21.60;99.90
30764;DHT22;17497;51.476;7.770;2023-06-19T02:44:26;21.60;99.90
30764;DHT22;17497;51.476;7.770;2023-06-19T02:46:53;21.50;99.90
30764;DHT22;17497;51.476;7.770;2023-06-19T02:49:20;21.50;99.90
30764;DHT22;17497;51.476;7.770;2023-06-19T02:51:46;21.50;99.90
30764;DHT22;17497;51.476;7.770;2023-06-19T02:54:13;21.50;99.90
30764;DHT22;17497;51.476;7.770;2023-06-19T02:56:40;21.50;99.90
30764;DHT22;17497;51.476;7.770;2023-06-19T02:59:06;21.50;99.90
30764;DHT22;17497;51.476;7.770;2023-06-19T03:01:33;21.50;99.90
30764;DHT22;17497;51.476;7.770;2023-06-19T03:04:00;21.50;99.90
30764;DHT22;17497;51.476;7.770;2023-06-19T03:06:27;21.60;99.90
30764;DHT22;17497;51.476;7.770;2023-06-19T03:08:54;21.60;99.90
30764;DHT22;17497;51.476;7.770;2023-06-19T03:11:21;21.60;99.90
30764;DHT22;17497;51.476;7.770;2023-06-19T03:13:50;21.60;99.90
30764;DHT22;17497;51.476;7.770;2023-06-19T03:16:18;21.60;99.90
30764;DHT22;17497;51.476;7.770;2023-06-19T03:18:45;21.60;99.90
30764;DHT22;17497;51.476;7.770;2023-06-19T03:21:16;21.60;99.90
30764;DHT22;17497;51.476;7.770;2023-06-19T03:23:43;21.70;99.90
30764;DHT22;17497;51.476;7.770;2023-06-19T03:26:10;21.70;99.90
30764;DHT22;17497;51.476;7.770;2023-06-19T03:28:37;21.70;99.90
30764;DHT22;17497;51.476;7.770;2023-06-19T03:31:04;21.70;99.90
30764;DHT22;17497;51.476;7.770;2023-06-19T03:33:31;21.70;99.90
30764;DHT22;17497;51.476;7.770;2023-06-19T03:35:57;21.70;99.90
30764;DHT22;17497;51.476;7.770;2023-06-19T03:38:26;21.70;99.90
30764;DHT22;17497;51.476;7.770;2023-06-19T03:40:53;21.80;99.90
30764;DHT22;17497;51.476;7.770;2023-06-19T03:43:20;21.80;99.90
30764;DHT22;17497;51.476;7.770;2023-06-19T03:45:47;21.80;99.90
30764;DHT22;17497;51.476;7.770;2023-06-19T03:48:15;21.80;99.90
30764;DHT22;17497;51.476;7.770;2023-06-19T03:50:41;21.80;99.90
30764;DHT22;17497;51.476;7.770;2023-06-19T03:53:08;21.90;99.90
30764;DHT22;17497;51.476;7.770;2023-06-19T03:55:35;21.90;99.90
30764;DHT22;17497;51.476;7.770;2023-06-19T03:58:02;21.90;99.90
30764;DHT22;17497;51.476;7.770;2023-06-19T04:00:29;22.00;99.90
30764;DHT22;17497;51.476;7.770;2023-06-19T04:02:56;22.00;99.90
30764;DHT22;17497;51.476;7.770;2023-06-19T04:05:23;22.00;99.90
30764;DHT22;17497;51.476;7.770;2023-06-19T04:07:51;22.00;99.90
30764;DHT22;17497;51.476;7.770;2023-06-19T04:10:18;21.90;99.90
30764;DHT22;17497;51.476;7.770;2023-06-19T04:12:44;21.90;99.90
30764;DHT22;17497;51.476;7.770;2023-06-19T04:15:12;21.90;99.90
30764;DHT22;17497;51.476;7.770;2023-06-19T04:17:39;21.90;99.90
30764;DHT22;17497;51.476;7.770;2023-06-19T04:20:06;21.90;99.90
30764;DHT22;17497;51.476;7.770;2023-06-19T04:22:39;21.90;99.90
30764;DHT22;17497;51.476;7.770;2023-06-19T04:25:10;21.80;99.90
30764;DHT22;17497;51.476;7.770;2023-06-19T04:27:38;21.80;99.90
30764;DHT22;17497;51.476;7.770;2023-06-19T04:30:05;21.80;99.90
30764;DHT22;17497;51.476;7.770;2023-06-19T04:32:34;21.70;99.90
30764;DHT22;17497;51.476;7.770;2023-06-19T04:35:02;21.70;99.90
30764;DHT22;17497;51.476;7.770;2023-06-19T04:37:28;21.70;99.90
30764;DHT22;17497;51.476;7.770;2023-06-19T04:39:55;21.60;99.90
30764;DHT22;17497;51.476;7.770;2023-06-19T04:42:23;21.50;99.90
30764;DHT22;17497;51.476;7.770;2023-06-19T04:44:49;21.50;99.90
30764;DHT22;17497;51.476;7.770;2023-06-19T04:47:19;21.50;99.90
30764;DHT22;17497;51.476;7.770;2023-06-19T04:49:46;21.50;99.90
30764;DHT22;17497;51.476;7.770;2023-06-19T04:52:13;21.40;99.90
30764;DHT22;17497;51.476;7.770;2023-06-19T04:54:40;21.40;99.90
30764;DHT22;17497;51.476;7.770;2023-06-19T04:57:07;21.30;99.90
30764;DHT22;17497;51.476;7.770;2023-06-19T04:59:34;21.20;99.90
30764;DHT22;17497;51.476;7.770;2023-06-19T05:02:01;21.10;99.90
30764;DHT22;17497;51.476;7.770;2023-06-19T05:04:29;21.10;99.90
30764;DHT22;17497;51.476;7.770;2023-06-19T05:06:59;21.00;99.90
30764;DHT22;17497;51.476;7.770;2023-06-19T05:09:26;21.00;99.90
30764;DHT22;17497;51.476;7.770;2023-06-19T05:11:53;20.90;99.90
30764;DHT22;17497;51.476;7.770;2023-06-19T05:14:20;20.80;99.90
30764;DHT22;17497;51.476;7.770;2023-06-19T05:16:47;20.80;99.90
30764;DHT22;17497;51.476;7.770;2023-06-19T05:19:14;20.70;99.90
30764;DHT22;17497;51.476;7.770;2023-06-19T05:21:40;20.70;99.90
30764;DHT22;17497;51.476;7.770;2023-06-19T05:24:07;20.70;99.90
30764;DHT22;17497;51.476;7.770;2023-06-19T05:26:34;20.70;99.90
30764;DHT22;17497;51.476;7.770;2023-06-19T05:29:01;20.70;99.90
30764;DHT22;17497;51.476;7.770;2023-06-19T05:31:28;20.70;99.90
30764;DHT22;17497;51.476;7.770;2023-06-19T05:33:55;20.80;99.90
30764;DHT22;17497;51.476;7.770;2023-06-19T05:36:25;20.80;99.90
30764;DHT22;17497;51.476;7.770;2023-06-19T05:38:57;20.80;99.90
30764;DHT22;17497;51.476;7.770;2023-06-19T05:41:24;20.80;99.90
30764;DHT22;17497;51.476;7.770;2023-06-19T05:43:51;20.80;99.90
30764;DHT22;17497;51.476;7.770;2023-06-19T05:46:18;20.80;99.90
30764;DHT22;17497;51.476;7.770;2023-06-19T05:48:45;20.90;99.90
30764;DHT22;17497;51.476;7.770;2023-06-19T05:51:11;20.90;99.90
30764;DHT22;17497;51.476;7.770;2023-06-19T05:53:38;20.90;99.90
30764;DHT22;17497;51.476;7.770;2023-06-19T05:56:06;20.90;99.90
30764;DHT22;17497;51.476;7.770;2023-06-19T05:58:33;20.80;99.90
30764;DHT22;17497;51.476;7.770;2023-06-19T06:01:00;20.90;99.90
30764;DHT22;17497;51.476;7.770;2023-06-19T06:03:27;21.00;99.90
30764;DHT22;17497;51.476;7.770;2023-06-19T06:05:54;21.00;99.90
30764;DHT22;17497;51.476;7.770;2023-06-19T06:08:21;21.20;99.90
30764;DHT22;17497;51.476;7.770;2023-06-19T06:10:48;21.20;99.90
30764;DHT22;17497;51.476;7.770;2023-06-19T06:13:14;21.30;99.90
30764;DHT22;17497;51.476;7.770;2023-06-19T06:15:42;21.30;99.90
30764;DHT22;17497;51.476;7.770;2023-06-19T06:18:12;21.30;99.90
30764;DHT22;17497;51.476;7.770;2023-06-19T06:20:38;21.40;99.90
30764;DHT22;17497;51.476;7.770;2023-06-19T06:23:05;21.50;99.90
30764;DHT22;17497;51.476;7.770;2023-06-19T06:25:32;21.50;99.90
30764;DHT22;17497;51.476;7.770;2023-06-19T06:27:59;21.50;99.90
30764;DHT22;17497;51.476;7.770;2023-06-19T06:30:26;21.50;99.90
30764;DHT22;17497;51.476;7.770;2023-06-19T06:32:54;21.40;99.90
30764;DHT22;17497;51.476;7.770;2023-06-19T06:35:21;21.30;99.90
30764;DHT22;17497;51.476;7.770;2023-06-19T06:37:48;21.20;99.90
30764;DHT22;17497;51.476;7.770;2023-06-19T06:40:16;21.30;99.90
30764;DHT22;17497;51.476;7.770;2023-06-19T06:42:43;21.30;99.90
30764;DHT22;17497;51.476;7.770;2023-06-19T06:45:11;21.30;99.90
30764;DHT22;17497;51.476;7.770;2023-06-19T06:47:37;21.40;99.90
30764;DHT22;17497;51.476;7.770;2023-06-19T06:50:08;21.40;99.90
30764;DHT22;17497;51.476;7.770;2023-06-19T06:52:35;21.40;99.90
30764;DHT22;17497;51.476;7.770;2023-06-19T06:55:02;21.30;99.90
30764;DHT22;17497;51.476;7.770;2023-06-19T06:57:29;21.30;99.90
30764;DHT22;17497;51.476;7.770;2023-06-19T06:59:56;21.20;99.90
30764;DHT22;17497;51.476;7.770;2023-06-19T07:02:22;21.20;99.90
30764;DHT22;17497;51.476;7.770;2023-06-19T07:04:49;21.10;99.90
30764;DHT22;17497;51.476;7.770;2023-06-19T07:07:16;21.00;99.90
30764;DHT22;17497;51.476;7.770;2023-06-19T07:09:43;21.00;99.90
30764;DHT22;17497;51.476;7.770;2023-06-19T07:12:10;21.00;99.90
30764;DHT22;17497;51.476;7.770;2023-06-19T07:14:37;21.00;99.90
30764;DHT22;17497;51.476;7.770;2023-06-19T07:17:04;21.10;99.90
30764;DHT22;17497;51.476;7.770;2023-06-19T07:19:34;21.20;99.90
30764;DHT22;17497;51.476;7.770;2023-06-19T07:22:01;21.30;99.90
30764;DHT22;17497;51.476;7.770;2023-06-19T07:24:28;21.40;99.90
30764;DHT22;17497;51.476;7.770;2023-06-19T07:26:55;21.50;99.90
30764;DHT22;17497;51.476;7.770;2023-06-19T07:29:23;21.60;99.90
30764;DHT22;17497;51.476;7.770;2023-06-19T07:31:49;21.70;99.90
30764;DHT22;17497;51.476;7.770;2023-06-19T07:34:16;21.80;99.90
30764;DHT22;17497;51.476;7.770;2023-06-19T07:36:43;21.80;99.90
30764;DHT22;17497;51.476;7.770;2023-06-19T07:39:10;21.80;99.90
30764;DHT22;17497;51.476;7.770;2023-06-19T07:41:37;21.80;99.90
30764;DHT22;17497;51.476;7.770;2023-06-19T07:44:04;21.80;99.90
30764;DHT22;17497;51.476;7.770;2023-06-19T07:46:31;21.70;99.90
30764;DHT22;17497;51.476;7.770;2023-06-19T07:48:58;21.70;99.90
30764;DHT22;17497;51.476;7.770;2023-06-19T07:51:25;21.80;99.90
30764;DHT22;17497;51.476;7.770;2023-06-19T07:53:52;21.90;99.90
30764;DHT22;17497;51.476;7.770;2023-06-19T07:56:18;21.90;99.90
30764;DHT22;17497;51.476;7.770;2023-06-19T07:58:45;22.00;99.90
30764;DHT22;17497;51.476;7.770;2023-06-19T08:01:13;21.90;99.90
30764;DHT22;17497;51.476;7.770;2023-06-19T08:03:41;21.90;99.90
30764;DHT22;17497;51.476;7.770;2023-06-19T08:06:09;22.00;99.90
30764;DHT22;17497;51.476;7.770;2023-06-19T08:08:36;22.10;99.90
30764;DHT22;17497;51.476;7.770;2023-06-19T08:11:02;22.10;99.90
30764;DHT22;17497;51.476;7.770;2023-06-19T08:13:29;22.10;99.90
30764;DHT22;17497;51.476;7.770;2023-06-19T08:15:56;22.20;99.90
30764;DHT22;17497;51.476;7.770;2023-06-19T08:18:23;22.30;99.90
30764;DHT22;17497;51.476;7.770;2023-06-19T08:20:50;22.30;99.90
30764;DHT22;17497;51.476;7.770;2023-06-19T08:23:17;22.40;99.90
30764;DHT22;17497;51.476;7.770;2023-06-19T08:25:43;22.30;99.90
30764;DHT22;17497;51.476;7.770;2023-06-19T08:28:10;22.40;99.90
30764;DHT22;17497;51.476;7.770;2023-06-19T08:30:37;22.50;99.90
30764;DHT22;17497;51.476;7.770;2023-06-19T08:33:04;22.40;99.90
30764;DHT22;17497;51.476;7.770;2023-06-19T08:35:31;22.40;99.90
30764;DHT22;17497;51.476;7.770;2023-06-19T08:37:58;22.50;99.90
30764;DHT22;17497;51.476;7.770;2023-06-19T08:40:25;22.40;99.90
30764;DHT22;17497;51.476;7.770;2023-06-19T08:42:52;22.50;99.90
30764;DHT22;17497;51.476;7.770;2023-06-19T08:45:19;22.50;99.90
30764;DHT22;17497;51.476;7.770;2023-06-19T08:47:48;22.50;99.90
30764;DHT22;17497;51.476;7.770;2023-06-19T08:50:16;22.50;99.90
30764;DHT22;17497;51.476;7.770;2023-06-19T08:52:42;22.50;99.90
30764;DHT22;17497;51.476;7.770;2023-06-19T08:55:09;22.60;99.90
30764;DHT22;17497;51.476;7.770;2023-06-19T08:57:40;22.70;99.90
30764;DHT22;17497;51.476;7.770;2023-06-19T09:00:07;22.70;99.90
30764;DHT22;17497;51.476;7.770;2023-06-19T09:02:42;22.70;99.90
30764;DHT22;17497;51.476;7.770;2023-06-19T09:05:15;22.70;99.90
30764;DHT22;17497;51.476;7.770;2023-06-19T09:07:43;22.60;99.90
30764;DHT22;17497;51.476;7.770;2023-06-19T09:10:18;22.70;99.90
30764;DHT22;17497;51.476;7.770;2023-06-19T09:13:04;22.60;99.90
30764;DHT22;17497;51.476;7.770;2023-06-19T09:15:34;22.70;99.90
30764;DHT22;17497;51.476;7.770;2023-06-19T09:18:03;22.80;99.90
30764;DHT22;17497;51.476;7.770;2023-06-19T09:20:32;22.90;99.90
30764;DHT22;17497;51.476;7.770;2023-06-19T09:22:59;23.00;99.90
30764;DHT22;17497;51.476;7.770;2023-06-19T09:25:26;23.20;99.90
30764;DHT22;17497;51.476;7.770;2023-06-19T09:27:57;23.30;99.90
30764;DHT22;17497;51.476;7.770;2023-06-19T09:30:24;23.40;99.90
30764;DHT22;17497;51.476;7.770;2023-06-19T09:32:51;23.60;99.90
30764;DHT22;17497;51.476;7.770;2023-06-19T09:35:18;23.70;99.90
30764;DHT22;17497;51.476;7.770;2023-06-19T09:37:45;23.80;99.90
30764;DHT22;17497;51.476;7.770;2023-06-19T09:40:13;24.00;99.90
30764;DHT22;17497;51.476;7.770;2023-06-19T09:42:41;24.10;99.90
30764;DHT22;17497;51.476;7.770;2023-06-19T09:45:11;24.30;99.90
30764;DHT22;17497;51.476;7.770;2023-06-19T09:47:43;24.50;99.90
30764;DHT22;17497;51.476;7.770;2023-06-19T09:50:15;24.70;99.90
30764;DHT22;17497;51.476;7.770;2023-06-19T09:52:43;24.60;99.90
30764;DHT22;17497;51.476;7.770;2023-06-19T09:55:10;24.40;99.90
30764;DHT22;17497;51.476;7.770;2023-06-19T09:57:41;24.30;99.90
30764;DHT22;17497;51.476;7.770;2023-06-19T10:00:09;24.10;99.90
30764;DHT22;17497;51.476;7.770;2023-06-19T10:02:49;24.00;99.90
30764;DHT22;17497;51.476;7.770;2023-06-19T10:05:16;23.80;99.90
30764;DHT22;17497;51.476;7.770;2023-06-19T10:07:45;23.80;99.90
30764;DHT22;17497;51.476;7.770;2023-06-19T10:10:24;24.00;99.90
30764;DHT22;17497;51.476;7.770;2023-06-19T10:12:54;24.00;99.90
30764;DHT22;17497;51.476;7.770;2023-06-19T10:15:25;23.90;99.90
30764;DHT22;17497;51.476;7.770;2023-06-19T10:18:01;23.80;99.90
30764;DHT22;17497;51.476;7.770;2023-06-19T10:20:36;23.80;99.90
30764;DHT22;17497;51.476;7.770;2023-06-19T10:23:23;24.10;99.90
30764;DHT22;17497;51.476;7.770;2023-06-19T10:28:23;24.40;99.90
30764;DHT22;17497;51.476;7.770;2023-06-19T10:30:54;24.60;99.90
30764;DHT22;17497;51.476;7.770;2023-06-19T10:33:26;24.70;99.90
30764;DHT22;17497;51.476;7.770;2023-06-19T10:35:54;24.60;99.90
30764;DHT22;17497;51.476;7.770;2023-06-19T10:38:21;24.50;99.90
30764;DHT22;17497;51.476;7.770;2023-06-19T10:40:47;24.30;99.90
30764;DHT22;17497;51.476;7.770;2023-06-19T10:43:22;24.50;99.90
30764;DHT22;17497;51.476;7.770;2023-06-19T10:45:57;24.90;99.90
30764;DHT22;17497;51.476;7.770;2023-06-19T10:48:25;25.30;99.90
30764;DHT22;17497;51.476;7.770;2023-06-19T10:50:52;25.60;99.90
30764;DHT22;17497;51.476;7.770;2023-06-19T10:53:31;25.80;99.90
30764;DHT22;17497;51.476;7.770;2023-06-19T10:55:59;26.00;99.90
30764;DHT22;17497;51.476;7.770;2023-06-19T10:58:26;26.00;99.90
30764;DHT22;17497;51.476;7.770;2023-06-19T11:00:54;26.10;99.90
30764;DHT22;17497;51.476;7.770;2023-06-19T11:03:21;26.10;99.90
30764;DHT22;17497;51.476;7.770;2023-06-19T11:05:49;26.20;99.90
30764;DHT22;17497;51.476;7.770;2023-06-19T11:08:20;26.20;99.90
30764;DHT22;17497;51.476;7.770;2023-06-19T11:10:48;26.10;99.90
30764;DHT22;17497;51.476;7.770;2023-06-19T11:13:16;26.50;99.90
30764;DHT22;17497;51.476;7.770;2023-06-19T11:15:45;26.80;99.90
30764;DHT22;17497;51.476;7.770;2023-06-19T11:18:14;26.90;99.90
30764;DHT22;17497;51.476;7.770;2023-06-19T11:20:51;26.90;99.90
30764;DHT22;17497;51.476;7.770;2023-06-19T11:23:26;26.50;99.90
30764;DHT22;17497;51.476;7.770;2023-06-19T11:25:53;26.30;99.90
30764;DHT22;17497;51.476;7.770;2023-06-19T11:28:20;26.40;99.90
30764;DHT22;17497;51.476;7.770;2023-06-19T11:30:58;26.60;99.90
30764;DHT22;17497;51.476;7.770;2023-06-19T11:33:25;26.90;99.90
30764;DHT22;17497;51.476;7.770;2023-06-19T11:35:53;27.00;99.90
30764;DHT22;17497;51.476;7.770;2023-06-19T11:38:23;27.10;99.90
30764;DHT22;17497;51.476;7.770;2023-06-19T11:40:51;27.20;99.90
30764;DHT22;17497;51.476;7.770;2023-06-19T11:43:29;27.20;99.90
30764;DHT22;17497;51.476;7.770;2023-06-19T11:46:06;27.40;99.90
30764;DHT22;17497;51.476;7.770;2023-06-19T11:48:37;27.60;98.20
30764;DHT22;17497;51.476;7.770;2023-06-19T11:51:05;27.70;99.10
30764;DHT22;17497;51.476;7.770;2023-06-19T11:53:31;27.60;99.20
30764;DHT22;17497;51.476;7.770;2023-06-19T11:55:58;27.70;98.40
30764;DHT22;17497;51.476;7.770;2023-06-19T11:58:25;27.60;98.10
30764;DHT22;17497;51.476;7.770;2023-06-19T12:00:53;27.40;98.10
30764;DHT22;17497;51.476;7.770;2023-06-19T12:03:20;27.30;98.90
30764;DHT22;17497;51.476;7.770;2023-06-19T12:05:47;27.30;98.40
30764;DHT22;17497;51.476;7.770;2023-06-19T12:08:14;27.50;98.40
30764;DHT22;17497;51.476;7.770;2023-06-19T12:10:41;27.70;98.40
30764;DHT22;17497;51.476;7.770;2023-06-19T12:13:08;27.90;97.20
30764;DHT22;17497;51.476;7.770;2023-06-19T12:15:35;28.10;98.00
30764;DHT22;17497;51.476;7.770;2023-06-19T12:18:03;28.30;96.50
30764;DHT22;17497;51.476;7.770;2023-06-19T12:20:31;28.50;95.70
30764;DHT22;17497;51.476;7.770;2023-06-19T12:22:58;28.40;96.40
30764;DHT22;17497;51.476;7.770;2023-06-19T12:25:25;28.80;95.10
30764;DHT22;17497;51.476;7.770;2023-06-19T12:27:52;28.70;95.30
30764;DHT22;17497;51.476;7.770;2023-06-19T12:30:21;28.70;94.80
30764;DHT22;17497;51.476;7.770;2023-06-19T12:32:48;28.80;94.00
30764;DHT22;17497;51.476;7.770;2023-06-19T12:35:16;28.60;94.40
30764;DHT22;17497;51.476;7.770;2023-06-19T12:37:43;28.60;94.30
30764;DHT22;17497;51.476;7.770;2023-06-19T12:40:10;28.90;94.40
30764;DHT22;17497;51.476;7.770;2023-06-19T12:42:37;29.10;92.60
30764;DHT22;17497;51.476;7.770;2023-06-19T12:45:04;29.20;92.50
30764;DHT22;17497;51.476;7.770;2023-06-19T12:47:32;29.30;92.00
30764;DHT22;17497;51.476;7.770;2023-06-19T12:49:59;29.50;91.20
30764;DHT22;17497;51.476;7.770;2023-06-19T12:52:26;29.20;92.20
30764;DHT22;17497;51.476;7.770;2023-06-19T12:54:53;28.90;91.70
30764;DHT22;17497;51.476;7.770;2023-06-19T12:57:20;28.90;92.50
30764;DHT22;17497;51.476;7.770;2023-06-19T12:59:47;29.00;92.60
30764;DHT22;17497;51.476;7.770;2023-06-19T13:02:14;29.30;91.40
30764;DHT22;17497;51.476;7.770;2023-06-19T13:04:41;29.30;93.40
30764;DHT22;17497;51.476;7.770;2023-06-19T13:07:08;29.40;90.70
30764;DHT22;17497;51.476;7.770;2023-06-19T13:09:35;29.70;91.10
30764;DHT22;17497;51.476;7.770;2023-06-19T13:12:02;30.00;90.20
30764;DHT22;17497;51.476;7.770;2023-06-19T13:14:29;30.40;87.20
30764;DHT22;17497;51.476;7.770;2023-06-19T13:16:58;30.80;85.20
30764;DHT22;17497;51.476;7.770;2023-06-19T13:19:26;30.50;86.50
30764;DHT22;17497;51.476;7.770;2023-06-19T13:21:53;30.20;84.70
30764;DHT22;17497;51.476;7.770;2023-06-19T13:24:20;30.10;85.50
30764;DHT22;17497;51.476;7.770;2023-06-19T13:26:47;29.70;86.80
30764;DHT22;17497;51.476;7.770;2023-06-19T13:29:14;29.70;87.70
30764;DHT22;17497;51.476;7.770;2023-06-19T13:31:41;29.40;84.90
30764;DHT22;17497;51.476;7.770;2023-06-19T13:34:08;29.10;85.10
30764;DHT22;17497;51.476;7.770;2023-06-19T13:36:35;29.30;85.70
30764;DHT22;17497;51.476;7.770;2023-06-19T13:39:02;29.50;85.80
30764;DHT22;17497;51.476;7.770;2023-06-19T13:41:31;29.80;83.20
30764;DHT22;17497;51.476;7.770;2023-06-19T13:44:00;30.00;83.70
30764;DHT22;17497;51.476;7.770;2023-06-19T13:46:27;30.00;82.00
30764;DHT22;17497;51.476;7.770;2023-06-19T13:48:54;29.90;82.00
30764;DHT22;17497;51.476;7.770;2023-06-19T13:51:21;30.00;83.00
30764;DHT22;17497;51.476;7.770;2023-06-19T13:53:49;30.10;81.30
30764;DHT22;17497;51.476;7.770;2023-06-19T13:56:17;30.20;84.50
30764;DHT22;17497;51.476;7.770;2023-06-19T13:58:44;30.10;79.50
30764;DHT22;17497;51.476;7.770;2023-06-19T14:01:10;30.10;83.70
30764;DHT22;17497;51.476;7.770;2023-06-19T14:03:38;30.30;79.60
30764;DHT22;17497;51.476;7.770;2023-06-19T14:06:08;30.30;78.40
30764;DHT22;17497;51.476;7.770;2023-06-19T14:08:35;30.00;80.20
30764;DHT22;17497;51.476;7.770;2023-06-19T14:11:02;29.60;82.10
30764;DHT22;17497;51.476;7.770;2023-06-19T14:13:28;29.60;80.50
30764;DHT22;17497;51.476;7.770;2023-06-19T14:15:55;29.80;83.40
30764;DHT22;17497;51.476;7.770;2023-06-19T14:18:23;29.80;83.30
30764;DHT22;17497;51.476;7.770;2023-06-19T14:20:49;30.10;78.00
30764;DHT22;17497;51.476;7.770;2023-06-19T14:23:16;30.30;78.00
30764;DHT22;17497;51.476;7.770;2023-06-19T14:25:43;30.30;76.60
30764;DHT22;17497;51.476;7.770;2023-06-19T14:28:10;30.60;79.30
30764;DHT22;17497;51.476;7.770;2023-06-19T14:30:37;31.00;77.30
30764;DHT22;17497;51.476;7.770;2023-06-19T14:33:05;31.30;73.00
30764;DHT22;17497;51.476;7.770;2023-06-19T14:35:32;31.40;74.80
30764;DHT22;17497;51.476;7.770;2023-06-19T14:37:59;31.50;72.40
30764;DHT22;17497;51.476;7.770;2023-06-19T14:40:26;31.80;71.60
30764;DHT22;17497;51.476;7.770;2023-06-19T14:42:53;32.00;71.40
30764;DHT22;17497;51.476;7.770;2023-06-19T14:45:20;32.30;70.20
30764;DHT22;17497;51.476;7.770;2023-06-19T14:47:46;32.60;71.10
30764;DHT22;17497;51.476;7.770;2023-06-19T14:50:16;33.00;67.60
30764;DHT22;17497;51.476;7.770;2023-06-19T14:52:43;33.30;66.30
30764;DHT22;17497;51.476;7.770;2023-06-19T14:55:10;33.50;63.40
30764;DHT22;17497;51.476;7.770;2023-06-19T14:57:37;33.40;65.20
30764;DHT22;17497;51.476;7.770;2023-06-19T15:00:04;33.60;67.20
30764;DHT22;17497;51.476;7.770;2023-06-19T15:02:32;33.70;61.60
30764;DHT22;17497;51.476;7.770;2023-06-19T15:05:00;33.60;60.90
30764;DHT22;17497;51.476;7.770;2023-06-19T15:07:33;33.40;59.90
30764;DHT22;17497;51.476;7.770;2023-06-19T15:09:59;32.80;61.20
30764;DHT22;17497;51.476;7.770;2023-06-19T15:12:26;32.50;62.90
30764;DHT22;17497;51.476;7.770;2023-06-19T15:14:53;32.00;63.40
30764;DHT22;17497;51.476;7.770;2023-06-19T15:17:20;31.60;65.90
30764;DHT22;17497;51.476;7.770;2023-06-19T15:19:47;31.60;66.10
30764;DHT22;17497;51.476;7.770;2023-06-19T15:22:14;31.90;64.40
30764;DHT22;17497;51.476;7.770;2023-06-19T15:24:40;32.40;62.90
30764;DHT22;17497;51.476;7.770;2023-06-19T15:27:07;32.90;62.00
30764;DHT22;17497;51.476;7.770;2023-06-19T15:29:34;33.30;61.70
30764;DHT22;17497;51.476;7.770;2023-06-19T15:32:02;33.70;62.10
30764;DHT22;17497;51.476;7.770;2023-06-19T15:34:29;34.00;61.10
30764;DHT22;17497;51.476;7.770;2023-06-19T15:36:55;34.20;58.20
30764;DHT22;17497;51.476;7.770;2023-06-19T15:39:22;34.40;58.70
30764;DHT22;17497;51.476;7.770;2023-06-19T15:41:49;34.70;59.50